createdAt,value
2023-04-26T00:02:08.712Z,97912.00
2023-04-26T00:06:09.904Z,97918.00
2023-04-26T00:10:11.603Z,97915.00
2023-04-26T00:14:12.951Z,97913.00
2023-04-26T00:18:14.105Z,97917.00
2023-04-26T00:22:14.993Z,97926.00
2023-04-26T00:26:16.004Z,97932.00
2023-04-26T00:30:17.368Z,97924.00
2023-04-26T00:34:18.634Z,97918.00
2023-04-26T00:38:19.712Z,97932.00
2023-04-26T00:42:20.697Z,97916.00
2023-04-26T00:46:22.284Z,97876.00
2023-04-26T00:50:24.067Z,97917.00
2023-04-26T00:54:25.554Z,97910.00
2023-04-26T00:58:26.869Z,97904.00
2023-04-26T01:02:27.919Z,97912.00
2023-04-26T01:06:32.956Z,97905.00
2023-04-26T01:10:35.226Z,97908.00
2023-04-26T01:14:37.325Z,97919.00
2023-04-26T01:18:38.438Z,97893.00
2023-04-26T01:22:39.584Z,97894.00
2023-04-26T01:26:46.115Z,97904.00
2023-04-26T01:30:47.263Z,97902.00
2023-04-26T01:34:48.328Z,97896.00
2023-04-26T01:38:49.559Z,97895.00
2023-04-26T01:42:50.760Z,97907.00
2023-04-26T01:46:51.932Z,97906.00
2023-04-26T01:50:53.124Z,97906.00
2023-04-26T01:54:54.350Z,97913.00
2023-04-26T01:58:56.716Z,97901.00
2023-04-26T02:02:57.881Z,97909.00
2023-04-26T02:06:59.052Z,97918.00
2023-04-26T02:11:00.113Z,97915.00
2023-04-26T02:15:01.058Z,97907.00
2023-04-26T02:19:04.066Z,97909.00
2023-04-26T02:23:05.156Z,97920.00
2023-04-26T02:27:07.208Z,97913.00
2023-04-26T02:31:08.604Z,97920.00
2023-04-26T02:35:10.188Z,97750.00
2023-04-26T02:39:11.617Z,97916.00
2023-04-26T02:43:12.744Z,97917.00
2023-04-26T02:47:13.851Z,97915.00
2023-04-26T02:51:15.455Z,97924.00
2023-04-26T02:55:16.758Z,97911.00
2023-04-26T02:59:17.843Z,97909.00
2023-04-26T03:03:19.006Z,97911.00
2023-04-26T03:07:20.547Z,97901.00
2023-04-26T03:11:21.711Z,97906.00
2023-04-26T03:15:22.789Z,97901.00
2023-04-26T03:19:23.795Z,97889.00
2023-04-26T03:23:25.036Z,97894.00
2023-04-26T03:27:26.019Z,97895.00
2023-04-26T03:31:27.162Z,97888.00
2023-04-26T03:35:28.114Z,97891.00
2023-04-26T03:39:29.262Z,97893.00
2023-04-26T03:43:30.649Z,97896.00
2023-04-26T03:47:31.776Z,97896.00
2023-04-26T03:51:33.251Z,97908.00
2023-04-26T03:55:34.367Z,97898.00
2023-04-26T03:59:35.350Z,97896.00
2023-04-26T04:03:39.201Z,97896.00
2023-04-26T04:07:39.653Z,97900.00
2023-04-26T04:11:40.773Z,97893.00
2023-04-26T04:15:41.831Z,97898.00
2023-04-26T04:19:42.832Z,97904.00
2023-04-26T04:23:44.073Z,97898.00
2023-04-26T04:27:45.239Z,97913.00
2023-04-26T04:31:46.462Z,97905.00
2023-04-26T04:35:47.953Z,97913.00
2023-04-26T04:39:49.033Z,97917.00
2023-04-26T04:43:50.430Z,97930.00
2023-04-26T04:47:53.477Z,97934.00
2023-04-26T04:51:54.466Z,97934.00
2023-04-26T04:55:56.488Z,97928.00
2023-04-26T04:59:58.416Z,97938.00
2023-04-26T05:04:00.676Z,97942.00
2023-04-26T05:08:02.283Z,97952.00
2023-04-26T05:12:03.830Z,97949.00
2023-04-26T05:16:05.165Z,97955.00
2023-04-26T05:20:07.771Z,97951.00
2023-04-26T05:24:08.705Z,97959.00
2023-04-26T05:28:11.589Z,97962.00
2023-04-26T05:32:12.843Z,97967.00
2023-04-26T05:36:13.884Z,97970.00
2023-04-26T05:40:15.886Z,97965.00
2023-04-26T05:44:16.839Z,97970.00
2023-04-26T05:48:18.063Z,97984.00
2023-04-26T05:52:19.135Z,97973.00
2023-04-26T05:56:20.599Z,97979.00
2023-04-26T06:00:22.932Z,97990.00
2023-04-26T06:04:24.043Z,97992.00
2023-04-26T06:08:27.035Z,97996.00
2023-04-26T06:12:28.060Z,98005.00
2023-04-26T06:16:29.231Z,97999.00
2023-04-26T06:20:30.402Z,97811.00
2023-04-26T06:24:31.342Z,98001.00
2023-04-26T06:28:32.444Z,98004.00
2023-04-26T06:32:33.651Z,98000.00
2023-04-26T06:36:34.650Z,98010.00
2023-04-26T06:40:38.781Z,98014.00
2023-04-26T06:44:39.717Z,98007.00
2023-04-26T06:48:40.770Z,98009.00
2023-04-26T06:52:41.736Z,98005.00
2023-04-26T06:56:42.849Z,98008.00
2023-04-26T07:00:43.953Z,98007.00
2023-04-26T07:04:45.192Z,98008.00
2023-04-26T07:08:46.545Z,98016.00
2023-04-26T07:12:47.582Z,98022.00
2023-04-26T07:16:48.662Z,98024.00
2023-04-26T07:20:49.603Z,98018.00
2023-04-26T07:24:50.767Z,98017.00
2023-04-26T07:28:52.005Z,98015.00
2023-04-26T07:32:53.277Z,98011.00
2023-04-26T07:36:55.525Z,98011.00
2023-04-26T07:40:56.886Z,98025.00
2023-04-26T07:44:57.852Z,98007.00
2023-04-26T07:48:58.831Z,98003.00
2023-04-26T07:53:00.163Z,98001.00
2023-04-26T07:57:01.419Z,98006.00
2023-04-26T08:01:03.278Z,97996.00
2023-04-26T08:05:05.097Z,98009.00
2023-04-26T08:09:06.533Z,98006.00
2023-04-26T08:13:07.650Z,98012.00
2023-04-26T08:17:09.451Z,98006.00
2023-04-26T08:21:10.558Z,98005.00
2023-04-26T08:25:11.804Z,98001.00
2023-04-26T08:29:14.301Z,97995.00
2023-04-26T08:33:17.482Z,97964.00
2023-04-26T08:37:18.412Z,98003.00
2023-04-26T08:41:23.793Z,98004.00
2023-04-26T08:45:24.753Z,98013.00
2023-04-26T08:49:38.728Z,97994.00
2023-04-26T08:53:41.328Z,97997.00
2023-04-26T08:57:45.292Z,98004.00
2023-04-26T09:01:47.478Z,98011.00
2023-04-26T09:05:49.327Z,97994.00
2023-04-26T09:09:50.926Z,98003.00
2023-04-26T09:13:52.129Z,98005.00
2023-04-26T09:17:53.943Z,97988.00
2023-04-26T09:21:55.559Z,97987.00
2023-04-26T09:25:56.794Z,97993.00
2023-04-26T09:30:20.553Z,97993.00
2023-04-26T09:34:21.528Z,97997.00
2023-04-26T09:38:22.515Z,97998.00
2023-04-26T09:42:23.753Z,97992.00
2023-04-26T09:46:25.238Z,97979.00
2023-04-26T09:50:29.151Z,97987.00
2023-04-26T09:54:48.367Z,97994.00
2023-04-26T09:58:58.229Z,97984.00
2023-04-26T10:03:00.014Z,97990.00
2023-04-26T10:07:01.887Z,97921.00
2023-04-26T10:11:04.528Z,97986.00
2023-04-26T10:15:08.067Z,97876.00
2023-04-26T10:19:10.030Z,97979.00
2023-04-26T10:23:20.805Z,97985.00
2023-04-26T10:27:46.376Z,97986.00
2023-04-26T10:32:05.011Z,97988.00
2023-04-26T10:36:13.699Z,97973.00
2023-04-26T10:40:29.463Z,97991.00
2023-04-26T10:44:41.241Z,97970.00
2023-04-26T10:48:42.458Z,97966.00
2023-04-26T10:53:04.724Z,97966.00
2023-04-26T10:57:05.796Z,97957.00
2023-04-26T11:01:10.236Z,97959.00
2023-04-26T11:05:13.395Z,97956.00
2023-04-26T11:09:37.417Z,97962.00
2023-04-26T11:13:40.734Z,97949.00
2023-04-26T11:17:41.724Z,97944.00
2023-04-26T11:21:43.144Z,97948.00
2023-04-26T11:25:44.324Z,97947.00
2023-04-26T11:34:04.352Z,97940.00
2023-04-26T11:38:05.540Z,97947.00
2023-04-26T11:42:07.990Z,97941.00
2023-04-26T11:46:09.455Z,97942.00
2023-04-26T11:50:11.582Z,97938.00
2023-04-26T11:54:34.226Z,97935.00
2023-04-26T11:58:37.016Z,97941.00
2023-04-26T12:02:38.147Z,97936.00
2023-04-26T12:06:43.827Z,97934.00
2023-04-26T12:10:46.514Z,97939.00
2023-04-26T12:14:47.666Z,97928.00
2023-04-26T12:18:52.255Z,97926.00
2023-04-26T12:23:04.898Z,97899.00
2023-04-26T12:27:07.358Z,97923.00
2023-04-26T12:31:08.965Z,97930.00
2023-04-26T12:35:10.014Z,97929.00
2023-04-26T12:39:13.274Z,97927.00
2023-04-26T12:43:16.071Z,97920.00
2023-04-26T12:47:17.544Z,97925.00
2023-04-26T12:51:18.685Z,97921.00
2023-04-26T12:55:20.762Z,97930.00
2023-04-26T12:59:21.748Z,97916.00
2023-04-26T13:03:23.107Z,97926.00
2023-04-26T13:07:24.378Z,97923.00
2023-04-26T13:11:25.420Z,97928.00
2023-04-26T13:15:27.411Z,97938.00
2023-04-26T13:19:28.577Z,97933.00
2023-04-26T13:23:29.571Z,97922.00
2023-04-26T13:27:31.661Z,97941.00
2023-04-26T13:31:33.481Z,97930.00
2023-04-26T13:35:35.702Z,97931.00
2023-04-26T13:39:36.807Z,97929.00
2023-04-26T13:43:37.864Z,97936.00
2023-04-26T13:47:38.877Z,97935.00
2023-04-26T13:51:40.190Z,97931.00
2023-04-26T13:55:41.352Z,97933.00
2023-04-26T13:59:42.417Z,97935.00
2023-04-26T14:03:43.475Z,97940.00
2023-04-26T14:07:44.832Z,97925.00
2023-04-26T14:11:47.570Z,97924.00
2023-04-26T14:15:49.056Z,97927.00
2023-04-26T14:19:50.568Z,97916.00
2023-04-26T14:23:51.970Z,97915.00
2023-04-26T14:27:53.896Z,97906.00
2023-04-26T14:31:54.898Z,97900.00
2023-04-26T14:35:55.975Z,97901.00
2023-04-26T14:39:56.944Z,97900.00
2023-04-26T14:43:57.880Z,97899.00
2023-04-26T14:48:01.397Z,97904.00
2023-04-26T14:52:03.504Z,97905.00
2023-04-26T14:56:06.617Z,97897.00
2023-04-26T15:00:08.728Z,97897.00
2023-04-26T15:04:09.854Z,97896.00
2023-04-26T15:08:11.428Z,97896.00
2023-04-26T15:12:12.405Z,97891.00
2023-04-26T15:16:13.442Z,97890.00
2023-04-26T15:20:15.131Z,97888.00
2023-04-26T15:24:16.115Z,97872.00
2023-04-26T15:28:17.817Z,97877.00
2023-04-26T15:32:18.954Z,97879.00
2023-04-26T15:36:21.345Z,97884.00
2023-04-26T15:40:23.712Z,97874.00
2023-04-26T15:44:24.678Z,97885.00
2023-04-26T15:48:26.030Z,97888.00
2023-04-26T15:52:26.972Z,97883.00
2023-04-26T15:56:28.076Z,97881.00
2023-04-26T16:00:30.813Z,97887.00
2023-04-26T16:04:32.159Z,97879.00
2023-04-26T16:12:38.579Z,97869.00
2023-04-26T16:16:40.697Z,97871.00
2023-04-26T16:20:41.889Z,97866.00
2023-04-26T16:24:42.829Z,97871.00
2023-04-26T16:28:43.924Z,97869.00
2023-04-26T16:32:45.291Z,97876.00
2023-04-26T16:36:46.314Z,97867.00
2023-04-26T16:40:57.392Z,97850.00
2023-04-26T16:44:58.559Z,97858.00
2023-04-26T16:48:59.751Z,97853.00
2023-04-26T16:53:00.734Z,97868.00
2023-04-26T16:57:03.197Z,97874.00
2023-04-26T17:01:04.231Z,97881.00
2023-04-26T17:05:05.986Z,97881.00
2023-04-26T17:09:08.000Z,97879.00
2023-04-26T17:13:11.416Z,97877.00
2023-04-26T17:17:12.398Z,97874.00
2023-04-26T17:21:13.505Z,97796.00
2023-04-26T17:25:14.744Z,97885.00
2023-04-26T17:29:15.889Z,97881.00
2023-04-26T17:33:16.975Z,97879.00
2023-04-26T17:37:18.060Z,97889.00
2023-04-26T17:41:21.015Z,97893.00
2023-04-26T17:45:22.780Z,97892.00
2023-04-26T17:49:25.162Z,97894.00
2023-04-26T17:53:26.800Z,97891.00
2023-04-26T17:57:28.031Z,97892.00
2023-04-26T18:01:29.280Z,97899.00
2023-04-26T18:05:31.271Z,97895.00
2023-04-26T18:09:32.444Z,97900.00
2023-04-26T18:13:33.442Z,97904.00
2023-04-26T18:17:34.458Z,97902.00
2023-04-26T18:21:35.554Z,97933.00
2023-04-26T18:25:37.156Z,97905.00
2023-04-26T18:29:38.170Z,97923.00
2023-04-26T18:33:39.168Z,97922.00
2023-04-26T18:37:41.404Z,97916.00
2023-04-26T18:41:42.528Z,97919.00
2023-04-26T18:45:43.553Z,97921.00
2023-04-26T18:49:44.613Z,97937.00
2023-04-26T18:53:45.735Z,97927.00
2023-04-26T18:57:46.781Z,97934.00
2023-04-26T19:01:48.489Z,97928.00
2023-04-26T19:05:49.469Z,97937.00
2023-04-26T19:09:54.195Z,97935.00
2023-04-26T19:13:53.308Z,97937.00
2023-04-26T19:17:54.449Z,97958.00
2023-04-26T19:21:55.413Z,97949.00
2023-04-26T19:26:08.786Z,97954.00
2023-04-26T19:30:10.391Z,97957.00
2023-04-26T19:34:12.786Z,97964.00
2023-04-26T19:38:14.489Z,97951.00
2023-04-26T19:42:15.632Z,97963.00
2023-04-26T19:46:16.797Z,97960.00
2023-04-26T19:50:18.082Z,97964.00
2023-04-26T19:54:19.177Z,97976.00
2023-04-26T19:58:20.202Z,97973.00
2023-04-26T20:02:21.296Z,97968.00
2023-04-26T20:06:22.453Z,97973.00
2023-04-26T20:10:23.484Z,97969.00
2023-04-26T20:14:25.327Z,97966.00
2023-04-26T20:18:26.475Z,97978.00
2023-04-26T20:22:27.502Z,97977.00
2023-04-26T20:26:29.033Z,97984.00
2023-04-26T20:30:32.089Z,97977.00
2023-04-26T20:34:33.315Z,97975.00
2023-04-26T20:38:34.537Z,97978.00
2023-04-26T20:42:35.722Z,97977.00
2023-04-26T20:46:36.895Z,97985.00
2023-04-26T20:50:37.929Z,97982.00
2023-04-26T20:54:39.025Z,97988.00
2023-04-26T20:58:40.469Z,97981.00
2023-04-26T21:02:41.782Z,97984.00
2023-04-26T21:06:42.988Z,97982.00
2023-04-26T21:10:44.154Z,97987.00
2023-04-26T21:14:47.077Z,98002.00
2023-04-26T21:18:48.215Z,97996.00
2023-04-26T21:22:49.225Z,97992.00
2023-04-26T21:26:50.199Z,97977.00
2023-04-26T21:31:06.186Z,97890.00
2023-04-26T21:35:07.993Z,97984.00
2023-04-26T21:39:09.433Z,97986.00
2023-04-26T21:43:10.787Z,97978.00
2023-04-26T21:47:11.760Z,97987.00
2023-04-26T21:51:13.009Z,97986.00
2023-04-26T21:55:14.272Z,97989.00
2023-04-26T21:59:15.392Z,97988.00
2023-04-26T22:03:17.093Z,97988.00
2023-04-26T22:07:18.437Z,97991.00
2023-04-26T22:11:19.559Z,97993.00
2023-04-26T22:15:20.884Z,97997.00
2023-04-26T22:19:21.835Z,97997.00
2023-04-26T22:23:22.912Z,98003.00
2023-04-26T22:27:24.180Z,98001.00
2023-04-26T22:31:25.598Z,98011.00
2023-04-26T22:35:27.435Z,98013.00
2023-04-26T22:39:28.565Z,98015.00
2023-04-26T22:43:29.688Z,98018.00
2023-04-26T22:47:30.711Z,98017.00
2023-04-26T22:51:34.218Z,98025.00
2023-04-26T22:55:35.377Z,98023.00
2023-04-26T22:59:36.504Z,98027.00
2023-04-26T23:03:37.695Z,98028.00
2023-04-26T23:07:39.952Z,98015.00
2023-04-26T23:11:41.018Z,98014.00
2023-04-26T23:15:42.096Z,98017.00
2023-04-26T23:19:43.191Z,98022.00
2023-04-26T23:23:44.262Z,97981.00
2023-04-26T23:27:46.166Z,98025.00
2023-04-26T23:31:47.278Z,98029.00
2023-04-26T23:35:48.370Z,98024.00
2023-04-26T23:39:49.465Z,98025.00
2023-04-26T23:43:50.383Z,98025.00
2023-04-26T23:47:51.260Z,98028.00
2023-04-26T23:51:52.433Z,98033.00
2023-04-26T23:55:53.487Z,98027.00
2023-04-26T23:59:54.573Z,98023.00
